Time;durP1;ratioP1;P1;durP2;ratioP2;P2;SDS_P1;SDS_P2;PMS_P1;PMS_P2;Temp;Humidity;BMP_temperature;BMP_pressure;BME280_temperature;BME280_humidity;BME280_pressure;Samples;Min_cycle;Max_cycle;Signal;HPM_P1;HPM_P2
2023/10/04 00:01:24;;;;;;;17.23;11.85;;;;;;;22.62;52.24;101713.22;6051498;23;20034;-81
2023/10/04 00:03:51;;;;;;;17.10;12.32;;;;;;;22.81;52.07;101728.03;6018815;23;20215;-80
2023/10/04 00:06:18;;;;;;;18.92;12.52;;;;;;;22.78;52.29;101726.53;6021546;23;20065;-81
2023/10/04 00:08:45;;;;;;;15.07;12.35;;;;;;;22.58;52.42;101699.25;6036477;23;20019;-80
2023/10/04 00:11:18;;;;;;;17.27;13.25;;;;;;;22.67;52.14;101691.88;6045561;23;20025;-81
2023/10/04 00:13:46;;;;;;;18.30;13.50;;;;;;;22.65;52.06;101693.06;6048751;23;20094;-80
2023/10/04 00:16:13;;;;;;;17.25;14.02;;;;;;;22.64;52.13;101694.09;6046222;23;20096;-79
2023/10/04 00:18:41;;;;;;;15.70;12.68;;;;;;;22.03;52.26;101592.38;6029457;23;20022;-80
2023/10/04 00:21:12;;;;;;;15.65;13.35;;;;;;;22.71;52.24;101703.97;6059169;23;20287;-80
2023/10/04 00:23:44;;;;;;;16.75;12.95;;;;;;;22.80;52.17;101739.91;6045017;23;20323;-80
2023/10/04 00:26:12;;;;;;;18.55;13.20;;;;;;;22.73;52.88;101733.56;6048303;23;20105;-81
2023/10/04 00:28:42;;;;;;;17.98;12.85;;;;;;;22.59;52.75;101702.78;6018381;23;20404;-80
2023/10/04 00:31:10;;;;;;;19.45;13.40;;;;;;;22.56;53.19;101717.53;6042027;23;20023;-82
2023/10/04 00:33:38;;;;;;;16.15;13.02;;;;;;;22.37;53.25;101685.63;6040504;23;20338;-81
2023/10/04 00:36:05;;;;;;;21.10;13.90;;;;;;;22.44;53.38;101704.66;6036862;23;20029;-80
2023/10/04 00:38:37;;;;;;;20.08;13.27;;;;;;;22.29;53.81;101685.75;6019135;23;20107;-81
2023/10/04 00:41:12;;;;;;;17.50;13.65;;;;;;;22.39;54.14;101710.66;6015564;23;20041;-80
2023/10/04 00:43:51;;;;;;;19.80;13.98;;;;;;;22.10;54.46;101662.78;6045496;23;20026;-81
2023/10/04 00:46:19;;;;;;;16.75;13.50;;;;;;;21.69;54.30;101601.88;6018930;23;20089;-80
2023/10/04 00:48:49;;;;;;;16.90;14.25;;;;;;;21.64;54.01;101592.69;6047192;23;20414;-81
2023/10/04 00:51:22;;;;;;;20.77;13.75;;;;;;;22.07;54.28;101669.41;6032513;23;20030;-79
2023/10/04 00:53:51;;;;;;;20.13;14.02;;;;;;;22.28;54.39;101709.25;6056366;23;20108;-80
2023/10/04 00:56:18;;;;;;;18.20;13.57;;;;;;;22.02;54.48;101671.00;6057696;23;20062;-81
2023/10/04 00:58:47;;;;;;;22.50;13.57;;;;;;;21.80;54.70;101641.16;6049396;23;20166;-82
2023/10/04 01:01:15;;;;;;;16.73;13.88;;;;;;;22.23;54.54;101708.97;6044193;23;20343;-80
2023/10/04 01:03:51;;;;;;;27.75;15.98;;;;;;;22.16;54.26;101691.75;5996441;23;20023;-80
2023/10/04 01:06:22;;;;;;;16.25;14.02;;;;;;;22.13;54.38;101692.97;6015849;23;20258;-81
2023/10/04 01:08:50;;;;;;;16.30;14.48;;;;;;;22.00;54.68;101667.63;6054964;23;20369;-80
2023/10/04 01:11:17;;;;;;;19.05;14.23;;;;;;;22.21;54.77;101707.47;6046509;23;20026;-79
2023/10/04 01:13:44;;;;;;;17.52;13.35;;;;;;;22.15;54.70;101695.50;6063066;23;20334;-80
2023/10/04 01:16:15;;;;;;;19.03;13.73;;;;;;;21.98;55.10;101681.31;6048002;23;20030;-81
2023/10/04 01:18:44;;;;;;;17.77;14.40;;;;;;;21.50;55.13;101592.47;6039179;23;20026;-79
2023/10/04 01:21:11;;;;;;;21.83;14.30;;;;;;;22.13;55.45;101700.25;6056879;23;20073;-79
2023/10/04 01:23:40;;;;;;;21.10;14.57;;;;;;;22.09;55.00;101694.41;6029244;23;20611;-80
2023/10/04 01:26:09;;;;;;;21.17;13.18;;;;;;;22.13;54.85;101698.38;6014210;23;20159;-80
2023/10/04 01:28:40;;;;;;;16.10;13.70;;;;;;;22.11;55.48;101702.31;6030879;23;20044;-80
2023/10/04 01:31:20;;;;;;;20.00;14.07;;;;;;;22.04;55.60;101701.38;5990208;23;20178;-80
2023/10/04 01:33:57;;;;;;;23.02;14.82;;;;;;;21.79;55.65;101671.88;5994359;23;20026;-80
2023/10/04 01:36:26;;;;;;;19.02;14.15;;;;;;;21.96;55.74;101702.28;6020342;23;20346;-80
2023/10/04 01:38:53;;;;;;;19.98;14.25;;;;;;;21.41;55.70;101625.13;6041281;23;20641;-80
2023/10/04 01:41:25;;;;;;;21.92;13.95;;;;;;;21.85;55.72;101686.53;6032190;23;20028;-79
2023/10/04 01:43:53;;;;;;;24.85;14.13;;;;;;;21.95;55.75;101697.94;5978736;23;20292;-80
2023/10/04 01:46:32;;;;;;;15.75;13.73;;;;;;;21.93;55.84;101699.97;5991538;23;20671;-81
2023/10/04 01:49:12;;;;;;;19.08;13.93;;;;;;;21.90;55.71;101712.00;6036886;23;20026;-81
2023/10/04 01:51:42;;;;;;;16.95;13.40;;;;;;;21.85;55.72;101700.91;6047627;23;20298;-79
2023/10/04 01:54:17;;;;;;;20.10;13.85;;;;;;;21.77;55.60;101684.75;6064935;23;20018;-80
2023/10/04 01:56:44;;;;;;;18.08;13.82;;;;;;;21.71;55.01;101653.06;6039642;23;20022;-81
2023/10/04 01:59:13;;;;;;;19.27;14.27;;;;;;;22.05;54.66;101692.25;6059233;23;20026;-80
2023/10/04 02:01:40;;;;;;;21.23;13.43;;;;;;;22.06;55.04;101699.31;6031516;23;20487;-81
2023/10/04 02:04:07;;;;;;;16.33;13.90;;;;;;;21.95;55.13;101696.06;6066580;23;20053;-80
2023/10/04 02:06:35;;;;;;;22.10;14.70;;;;;;;21.61;54.60;101630.88;6072039;23;20133;-81
2023/10/04 02:09:11;;;;;;;21.98;13.98;;;;;;;22.02;54.73;101700.72;6058017;23;20458;-81
2023/10/04 02:11:41;;;;;;;16.98;14.00;;;;;;;22.02;54.65;101704.28;6034949;23;20176;-80
2023/10/04 02:14:11;;;;;;;17.80;13.97;;;;;;;22.00;54.65;101711.72;6008891;23;20089;-81
2023/10/04 02:16:38;;;;;;;19.40;14.15;;;;;;;21.91;54.65;101686.63;6005619;23;20038;-81
2023/10/04 02:19:05;;;;;;;18.90;13.68;;;;;;;21.85;54.04;101665.75;6016989;23;20026;-79
2023/10/04 02:21:36;;;;;;;19.50;13.35;;;;;;;21.97;54.61;101712.09;6009302;23;20431;-81
2023/10/04 02:24:16;;;;;;;15.70;13.50;;;;;;;21.70;54.64;101673.84;6000163;23;20022;-81
2023/10/04 02:26:50;;;;;;;18.38;13.60;;;;;;;21.74;55.14;101690.53;6044983;23;20219;-80
2023/10/04 02:29:29;;;;;;;15.25;12.63;;;;;;;21.59;55.30;101676.97;6008569;23;20392;-81
2023/10/04 02:32:08;;;;;;;21.55;13.68;;;;;;;21.74;55.50;101701.34;6011787;23;20022;-80
2023/10/04 02:34:41;;;;;;;18.50;13.30;;;;;;;21.59;55.43;101681.56;6033802;23;20303;-80
2023/10/04 02:37:10;;;;;;;18.00;13.20;;;;;;;21.77;55.59;101700.97;6024913;23;20026;-80
2023/10/04 02:39:37;;;;;;;20.65;13.48;;;;;;;21.25;55.06;101609.91;6039332;23;20246;-80
2023/10/04 02:42:12;;;;;;;15.45;13.65;;;;;;;21.69;55.61;101687.53;6044317;23;20045;-80
2023/10/04 02:44:43;;;;;;;16.42;13.15;;;;;;;21.03;55.60;101588.16;6044143;23;20022;-80
2023/10/04 02:47:16;;;;;;;15.43;13.18;;;;;;;21.55;55.90;101684.63;6054404;23;20038;-79
2023/10/04 02:49:43;;;;;;;16.33;13.82;;;;;;;21.62;55.90;101702.78;6042556;23;20018;-81
2023/10/04 02:52:13;;;;;;;16.73;13.70;;;;;;;21.67;55.55;101706.63;6038993;23;20022;-81
2023/10/04 02:54:41;;;;;;;15.95;13.05;;;;;;;21.50;55.45;101657.28;6058611;23;20234;-80
2023/10/04 02:57:11;;;;;;;17.90;13.68;;;;;;;21.51;55.69;101661.69;6051301;23;20022;-81
2023/10/04 02:59:39;;;;;;;19.48;14.05;;;;;;;21.57;55.58;101678.19;6033749;23;20026;-79
2023/10/04 03:02:07;;;;;;;15.70;13.52;;;;;;;21.58;55.81;101690.66;6020608;23;20510;-79
2023/10/04 03:04:41;;;;;;;20.17;14.02;;;;;;;21.38;56.04;101664.13;6026559;23;20023;-79
2023/10/04 03:07:11;;;;;;;17.30;14.07;;;;;;;21.48;55.97;101680.13;6010216;23;20050;-80
2023/10/04 03:09:38;;;;;;;24.17;16.48;;;;;;;21.39;56.32;101671.25;6019442;23;20028;-80
2023/10/04 03:12:10;;;;;;;18.13;14.27;;;;;;;20.85;55.87;101582.19;6051811;23;20026;-81
2023/10/04 03:14:38;;;;;;;21.02;13.68;;;;;;;21.53;56.20;101700.19;6020723;23;20625;-79
2023/10/04 03:17:07;;;;;;;19.42;13.77;;;;;;;21.33;56.39;101671.94;6040470;23;20023;-80
2023/10/04 03:19:36;;;;;;;20.42;13.95;;;;;;;21.20;56.44;101655.53;6027344;23;20078;-79
2023/10/04 03:22:04;;;;;;;17.90;13.95;;;;;;;21.48;56.91;101697.19;6039605;23;20093;-80
2023/10/04 03:24:36;;;;;;;19.70;14.27;;;;;;;21.44;57.02;101705.84;6014708;23;20442;-80
2023/10/04 03:27:26;;;;;;;22.40;15.65;;;;;;;21.07;57.08;101654.25;5989323;23;20301;-80
2023/10/04 03:29:58;;;;;;;19.30;13.48;;;;;;;21.38;57.30;101710.03;5995683;23;20205;-81
2023/10/04 03:32:26;;;;;;;18.00;14.32;;;;;;;21.26;57.16;101688.03;6013870;23;20101;-80
2023/10/04 03:35:00;;;;;;;18.67;14.77;;;;;;;21.17;57.22;101666.69;6053594;23;20049;-81
2023/10/04 03:37:31;;;;;;;21.45;14.43;;;;;;;21.37;57.22;101699.44;6036219;23;20593;-80
2023/10/04 03:40:01;;;;;;;17.20;14.25;;;;;;;21.06;57.16;101660.66;6020923;23;20202;-80
2023/10/04 03:42:34;;;;;;;20.85;14.18;;;;;;;20.82;56.84;101621.19;5998187;23;20462;-81
2023/10/04 03:45:07;;;;;;;19.83;14.02;;;;;;;21.35;56.37;101692.34;5987767;23;20196;-81
2023/10/04 03:47:41;;;;;;;18.83;14.18;;;;;;;21.33;56.46;101688.13;5989450;23;20392;-80
2023/10/04 03:50:14;;;;;;;18.40;14.35;;;;;;;21.37;56.75;101694.03;5995045;23;20058;-80
2023/10/04 03:52:46;;;;;;;17.40;13.57;;;;;;;21.20;56.82;101669.84;6022998;23;20462;-82
2023/10/04 03:55:15;;;;;;;16.42;13.13;;;;;;;21.32;57.02;101699.97;6035764;23;20322;-81
2023/10/04 03:57:44;;;;;;;20.90;13.75;;;;;;;20.97;57.05;101650.09;6040410;23;20390;-82
2023/10/04 04:00:17;;;;;;;16.20;13.20;;;;;;;21.35;56.91;101710.41;6013441;23;20597;-81
2023/10/04 04:02:51;;;;;;;20.00;14.83;;;;;;;21.29;57.00;101703.06;6022140;23;20089;-81
2023/10/04 04:05:28;;;;;;;19.52;14.48;;;;;;;21.05;57.27;101677.91;5995189;23;20383;-80
2023/10/04 04:08:02;;;;;;;17.20;13.35;;;;;;;20.83;57.43;101649.03;6023904;23;20445;-81
2023/10/04 04:10:36;;;;;;;18.55;13.52;;;;;;;21.27;57.20;101722.13;6053640;23;20069;-80
2023/10/04 04:13:05;;;;;;;16.33;12.30;;;;;;;21.28;56.90;101728.34;6032672;23;20230;-83
2023/10/04 04:15:35;;;;;;;18.33;13.18;;;;;;;21.12;56.47;101705.84;6019072;23;20072;-80
2023/10/04 04:18:05;;;;;;;14.95;12.30;;;;;;;21.00;56.83;101691.09;6033927;23;20029;-80
2023/10/04 04:20:42;;;;;;;16.45;13.07;;;;;;;21.12;56.89;101705.03;5976540;23;20255;-80
2023/10/04 04:23:10;;;;;;;18.75;12.80;;;;;;;21.24;57.25;101751.31;5987235;23;20111;-80
2023/10/04 04:25:38;;;;;;;14.98;13.23;;;;;;;21.00;57.09;101710.00;6034678;23;20054;-80
2023/10/04 04:28:07;;;;;;;15.32;12.73;;;;;;;21.21;57.29;101757.94;6052388;23;20089;-79
2023/10/04 04:30:35;;;;;;;17.98;13.02;;;;;;;21.11;57.20;101755.47;6058598;23;20026;-79
2023/10/04 04:33:07;;;;;;;20.73;13.82;;;;;;;20.98;57.51;101733.63;6055514;23;20018;-80
2023/10/04 04:38:19;;;;;;;16.13;12.52;;;;;;;21.02;57.35;101756.53;6033613;23;20018;-80
2023/10/04 04:40:55;;;;;;;16.58;12.65;;;;;;;20.87;57.77;101728.59;6030912;23;20031;-78
2023/10/04 04:43:34;;;;;;;19.02;12.75;;;;;;;20.94;57.82;101743.06;6087165;23;20370;-78
2023/10/04 04:46:12;;;;;;;26.13;13.63;;;;;;;21.04;57.10;101749.09;6055468;23;20413;-80
2023/10/04 04:48:43;;;;;;;20.55;12.95;;;;;;;20.90;57.51;101741.78;6040016;23;20441;-81
2023/10/04 04:51:14;;;;;;;16.25;13.13;;;;;;;20.85;56.91;101734.19;6018361;23;20803;-80
2023/10/04 04:53:52;;;;;;;14.48;12.05;;;;;;;20.87;57.16;101742.09;5982878;23;20284;-80
2023/10/04 04:56:24;;;;;;;19.92;13.13;;;;;;;20.97;57.42;101756.25;6032018;23;20018;-82
2023/10/04 04:58:56;;;;;;;16.48;12.38;;;;;;;21.01;57.08;101767.50;6035496;23;20273;-81
2023/10/04 05:01:24;;;;;;;17.13;12.45;;;;;;;21.01;56.82;101760.25;6031620;23;20231;-82
2023/10/04 05:03:52;;;;;;;13.48;12.05;;;;;;;20.70;56.86;101707.13;6046880;23;20389;-78
2023/10/04 05:06:23;;;;;;;21.85;13.10;;;;;;;20.59;57.12;101696.72;6055786;23;20022;-80
2023/10/04 05:08:54;;;;;;;19.00;13.60;;;;;;;21.02;57.24;101755.69;6029771;23;20028;-79
2023/10/04 05:11:21;;;;;;;14.27;12.80;;;;;;;20.46;57.48;101678.38;6009233;23;20028;-79
2023/10/04 05:13:50;;;;;;;17.13;13.75;;;;;;;20.55;57.62;101689.97;6027469;23;20018;-78
2023/10/04 05:16:26;;;;;;;17.02;13.35;;;;;;;20.95;57.59;101752.88;6022587;23;20399;-81
2023/10/04 05:18:53;;;;;;;22.13;13.80;;;;;;;20.83;58.00;101746.19;5980041;23;20214;-81
2023/10/04 05:21:26;;;;;;;23.90;14.48;;;;;;;21.03;58.09;101776.28;5969765;23;20340;-83
2023/10/04 05:23:56;;;;;;;20.20;15.25;;;;;;;20.76;58.29;101745.22;6019172;23;20029;-80
2023/10/04 05:26:23;;;;;;;17.35;14.95;;;;;;;21.01;58.20;101783.72;6065492;23;20081;-80
2023/10/04 05:28:56;;;;;;;19.38;14.50;;;;;;;20.84;58.57;101761.34;6069415;23;20019;-80
2023/10/04 05:31:27;;;;;;;19.80;14.35;;;;;;;20.34;58.89;101695.09;6049616;23;20504;-81
2023/10/04 05:33:54;;;;;;;18.27;13.73;;;;;;;20.10;59.04;101659.13;6048434;23;20022;-81
2023/10/04 05:36:24;;;;;;;20.95;13.95;;;;;;;20.85;59.26;101795.41;6068708;23;20033;-81
2023/10/04 05:38:53;;;;;;;19.13;16.00;;;;;;;20.55;58.69;101737.66;6056621;23;20029;-81
2023/10/04 05:41:20;;;;;;;23.63;16.00;;;;;;;20.84;59.04;101813.47;6054258;23;20049;-79
2023/10/04 05:43:49;;;;;;;24.50;15.98;;;;;;;20.78;59.19;101806.09;6049922;23;20801;-79
2023/10/04 05:46:24;;;;;;;23.00;17.65;;;;;;;20.54;59.18;101758.41;6037557;23;20050;-81
2023/10/04 05:48:56;;;;;;;22.90;18.33;;;;;;;20.86;59.03;101822.22;6014453;23;20021;-80
2023/10/04 05:51:30;;;;;;;23.95;16.73;;;;;;;20.69;59.51;101817.91;6000252;23;20489;-79
2023/10/04 05:53:57;;;;;;;26.40;18.38;;;;;;;20.44;59.64;101782.06;6007543;23;20717;-78
2023/10/04 05:56:26;;;;;;;25.55;18.90;;;;;;;20.53;60.16;101817.91;6037536;23;20046;-79
2023/10/04 05:58:57;;;;;;;30.00;19.23;;;;;;;19.86;60.58;101722.00;6027603;23;20018;-80
2023/10/04 06:01:24;;;;;;;25.15;18.92;;;;;;;20.37;60.95;101805.31;6056999;23;20369;-79
2023/10/04 06:03:52;;;;;;;29.48;18.45;;;;;;;20.13;60.45;101777.38;6058081;23;20435;-79
2023/10/04 06:06:20;;;;;;;23.85;19.58;;;;;;;20.42;60.42;101813.75;6058608;23;20447;-78
2023/10/04 06:08:52;;;;;;;23.88;19.30;;;;;;;20.32;60.62;101802.31;6042205;23;20022;-79
2023/10/04 06:11:25;;;;;;;24.30;18.92;;;;;;;20.25;60.82;101785.97;6045948;23;20485;-77
2023/10/04 06:13:54;;;;;;;25.92;19.75;;;;;;;20.43;60.79;101831.59;6068146;23;20026;-80
2023/10/04 06:16:29;;;;;;;30.52;21.08;;;;;;;20.25;60.64;101802.97;6007491;23;20109;-81
2023/10/04 06:18:59;;;;;;;31.92;19.42;;;;;;;20.27;60.84;101817.13;6000166;23;20612;-78
2023/10/04 06:21:29;;;;;;;28.70;20.25;;;;;;;20.46;60.74;101839.34;5987393;23;20019;-80
2023/10/04 06:24:00;;;;;;;30.23;21.75;;;;;;;20.36;60.60;101822.50;5971626;23;20027;-79
2023/10/04 06:26:37;;;;;;;28.80;21.50;;;;;;;20.48;60.62;101848.09;6004089;23;20536;-78
2023/10/04 06:29:07;;;;;;;37.25;23.75;;;;;;;20.28;60.89;101810.72;6048770;23;20034;-77
2023/10/04 06:31:46;;;;;;;30.13;22.35;;;;;;;20.54;59.95;101833.94;6002311;23;20022;-77
2023/10/04 06:34:24;;;;;;;33.97;23.25;;;;;;;20.49;59.94;101841.72;6031079;23;20061;-80
2023/10/04 06:36:52;;;;;;;31.40;22.80;;;;;;;19.89;60.93;101772.03;6043248;23;20018;-80
2023/10/04 06:39:19;;;;;;;33.33;24.38;;;;;;;20.46;60.62;101871.69;6043699;23;20069;-80
2023/10/04 06:41:48;;;;;;;33.65;24.02;;;;;;;20.50;60.38;101876.59;6045162;23;20025;-79
2023/10/04 06:44:28;;;;;;;31.23;23.38;;;;;;;20.42;60.80;101873.91;6051251;23;20034;-79
2023/10/04 06:46:55;;;;;;;38.45;25.58;;;;;;;20.41;60.56;101885.72;6059234;23;20074;-79
2023/10/04 06:49:23;;;;;;;38.63;24.55;;;;;;;20.22;60.37;101851.84;6057810;23;20402;-77
2023/10/04 06:51:55;;;;;;;36.78;23.98;;;;;;;20.53;60.08;101891.59;6028048;23;20014;-80
2023/10/04 06:54:21;;;;;;;35.58;25.13;;;;;;;20.34;59.88;101855.06;5971725;23;20395;-78
2023/10/04 06:56:51;;;;;;;31.63;23.33;;;;;;;20.61;60.12;101910.50;6059119;23;20098;-78
2023/10/04 06:59:19;;;;;;;29.90;23.60;;;;;;;20.70;59.82;101905.94;6041073;23;20392;-78
2023/10/04 07:01:50;;;;;;;31.50;24.10;;;;;;;20.68;59.97;101906.13;6028805;23;20339;-79
2023/10/04 07:04:29;;;;;;;32.45;24.63;;;;;;;20.48;60.28;101884.00;6051685;23;20253;-79
2023/10/04 07:06:57;;;;;;;34.25;24.50;;;;;;;20.62;60.39;101911.34;6034588;23;20019;-79
2023/10/04 07:09:28;;;;;;;34.58;24.38;;;;;;;20.58;60.24;101905.44;6027209;23;20233;-79
2023/10/04 07:11:56;;;;;;;39.80;24.13;;;;;;;20.47;60.55;101901.22;6023779;23;20642;-79
2023/10/04 07:14:23;;;;;;;33.00;23.95;;;;;;;20.56;61.06;101918.28;6040519;23;20058;-80
2023/10/04 07:16:51;;;;;;;32.45;22.75;;;;;;;20.35;60.42;101885.56;6014633;23;20077;-80
2023/10/04 07:19:23;;;;;;;36.95;24.00;;;;;;;20.50;60.48;101905.41;5993867;23;20670;-80
2023/10/04 07:21:59;;;;;;;28.17;20.02;;;;;;;20.37;60.23;101872.75;5973837;23;20309;-80
2023/10/04 07:24:32;;;;;;;24.98;20.80;;;;;;;20.69;60.21;101923.97;6002204;23;20270;-80
2023/10/04 07:26:59;;;;;;;34.75;21.17;;;;;;;20.75;59.67;101929.69;6084103;23;20018;-79
2023/10/04 07:29:26;;;;;;;29.38;20.13;;;;;;;20.71;59.21;101910.31;6047222;23;20342;-78
2023/10/04 07:31:55;;;;;;;26.95;20.85;;;;;;;20.41;59.75;101866.84;6057073;23;20517;-80
2023/10/04 07:34:33;;;;;;;28.90;20.70;;;;;;;20.57;59.71;101892.97;6049190;23;20583;-80
2023/10/04 07:37:08;;;;;;;30.88;19.40;;;;;;;20.73;59.75;101899.34;6017394;23;20050;-78
2023/10/04 07:39:39;;;;;;;29.38;19.55;;;;;;;20.84;59.47;101920.59;6044567;23;20036;-78
2023/10/04 07:42:06;;;;;;;34.38;20.20;;;;;;;20.99;59.88;101942.31;6036435;23;20362;-79
2023/10/04 07:44:33;;;;;;;31.70;19.10;;;;;;;20.76;59.76;101885.53;6047045;23;20029;-80
2023/10/04 07:47:00;;;;;;;30.85;18.73;;;;;;;20.95;59.46;101922.94;6071275;23;20300;-79
2023/10/04 07:49:32;;;;;;;33.50;18.73;;;;;;;21.15;59.12;101944.13;6052205;23;20471;-79
2023/10/04 07:51:59;;;;;;;25.13;17.58;;;;;;;21.13;59.00;101938.91;6048871;23;20446;-79
2023/10/04 07:54:27;;;;;;;33.03;17.70;;;;;;;20.50;59.14;101827.19;6067776;23;20081;-82
2023/10/04 07:56:54;;;;;;;26.80;17.10;;;;;;;21.42;58.28;101959.09;6053803;23;20019;-83
2023/10/04 07:59:22;;;;;;;26.35;16.17;;;;;;;21.44;58.17;101955.19;6060256;23;20115;-83
2023/10/04 08:01:49;;;;;;;21.25;14.77;;;;;;;21.59;58.26;101968.78;6048265;23;20380;-82
2023/10/04 08:04:19;;;;;;;25.48;14.52;;;;;;;21.63;57.99;101969.31;6054063;23;20022;-83
2023/10/04 08:06:52;;;;;;;25.08;14.73;;;;;;;21.65;57.85;101972.66;6056675;23;20105;-82
2023/10/04 08:09:19;;;;;;;19.13;14.45;;;;;;;21.70;57.95;101967.56;6052896;23;20366;-83
2023/10/04 08:11:46;;;;;;;30.48;15.10;;;;;;;21.79;57.61;101977.31;6048735;23;20026;-81
2023/10/04 08:14:13;;;;;;;28.33;15.18;;;;;;;21.71;57.52;101939.53;6060747;23;20106;-80
2023/10/04 08:16:40;;;;;;;28.58;14.80;;;;;;;21.98;56.90;101973.31;6059239;23;20156;-82
2023/10/04 08:19:07;;;;;;;26.30;14.80;;;;;;;21.82;56.33;101941.84;6062166;23;20081;-81
2023/10/04 08:21:34;;;;;;;22.80;15.18;;;;;;;22.08;55.92;101968.50;6064673;23;20346;-82
2023/10/04 08:24:02;;;;;;;32.15;14.43;;;;;;;22.08;56.43;101962.28;6043548;23;20221;-81
2023/10/04 08:26:34;;;;;;;24.27;15.35;;;;;;;22.16;56.27;101970.31;6051042;23;20230;-82
2023/10/04 08:29:04;;;;;;;25.33;14.07;;;;;;;22.07;56.45;101956.03;6054284;23;20041;-81
2023/10/04 08:31:36;;;;;;;23.15;14.82;;;;;;;22.18;56.94;101968.28;6048637;23;20106;-78
2023/10/04 08:34:04;;;;;;;23.75;15.23;;;;;;;21.94;56.46;101921.47;6055682;23;20073;-78
2023/10/04 08:36:33;;;;;;;24.70;16.25;;;;;;;22.17;56.25;101963.91;6081722;23;20022;-80
2023/10/04 08:39:10;;;;;;;25.38;16.58;;;;;;;22.28;56.82;101973.47;6053933;23;20028;-79
2023/10/04 08:41:40;;;;;;;22.75;15.80;;;;;;;22.18;57.39;101950.19;6037104;23;20398;-80
2023/10/04 08:44:07;;;;;;;25.23;17.13;;;;;;;21.97;57.19;101913.00;6044016;23;20458;-82
2023/10/04 08:46:37;;;;;;;25.17;16.40;;;;;;;22.18;57.07;101939.38;6061616;23;20180;-81
2023/10/04 08:49:10;;;;;;;24.35;19.20;;;;;;;22.51;56.77;101985.13;6054524;23;20101;-82
2023/10/04 08:51:55;;;;;;;30.98;21.02;;;;;;;22.56;55.75;101971.06;6055283;23;20032;-80
2023/10/04 08:54:27;;;;;;;31.52;23.60;;;;;;;22.61;56.31;101969.50;6032415;23;20026;-80
2023/10/04 08:57:20;;;;;;;37.45;23.67;;;;;;;22.66;56.05;101982.47;6039363;23;20025;-82
2023/10/04 08:59:49;;;;;;;35.25;23.67;;;;;;;22.85;56.24;101986.53;6056284;23;20793;-82
2023/10/04 09:02:18;;;;;;;35.63;25.17;;;;;;;22.97;56.87;101986.94;6055492;23;20105;-82
2023/10/04 09:04:51;;;;;;;40.55;24.85;;;;;;;23.00;56.27;101978.47;6078324;23;20463;-83
2023/10/04 09:07:25;;;;;;;34.45;24.92;;;;;;;23.00;55.50;101956.78;6058365;23;20018;-81
2023/10/04 09:10:01;;;;;;;34.17;25.65;;;;;;;23.25;55.23;101985.31;6050051;23;20164;-82
2023/10/04 09:12:28;;;;;;;37.42;24.98;;;;;;;23.51;54.54;101994.81;6077703;23;20030;-81
2023/10/04 09:14:59;;;;;;;;;;;;;;;23.53;54.55;101989.22;6063486;23;20485;-81
2023/10/04 09:17:28;;;;;;;32.15;23.52;;;;;;;23.59;54.33;101989.31;6055126;23;19931;-83
2023/10/04 09:19:56;;;;;;;45.45;25.90;;;;;;;23.61;53.89;101960.13;6051535;23;20293;-82
2023/10/04 09:22:30;;;;;;;34.63;23.02;;;;;;;23.88;53.30;101990.28;6050384;23;20041;-82
2023/10/04 09:24:57;;;;;;;34.60;21.73;;;;;;;23.84;53.54;101970.84;6054157;23;20463;-81
2023/10/04 09:27:26;;;;;;;32.40;22.35;;;;;;;24.03;53.23;101984.81;6061702;23;20041;-81
2023/10/04 09:29:59;;;;;;;29.20;22.05;;;;;;;23.84;53.63;101959.19;6037447;23;20030;-83
2023/10/04 09:32:42;;;;;;;33.80;22.35;;;;;;;23.97;53.91;101969.31;6041277;23;20097;-81
2023/10/04 09:35:10;;;;;;;40.53;29.33;;;;;;;24.23;53.42;101985.88;6048221;23;20064;-81
2023/10/04 09:37:39;;;;;;;48.63;34.08;;;;;;;24.29;53.63;101985.09;6022330;23;20202;-81
2023/10/04 09:40:17;;;;;;;51.35;34.40;;;;;;;24.21;53.70;101971.66;6000693;23;20638;-81
2023/10/04 09:43:00;;;;;;;52.67;34.00;;;;;;;24.21;53.89;101987.94;6038012;23;20514;-81
2023/10/04 09:45:35;;;;;;;51.83;33.75;;;;;;;24.21;54.51;101992.53;6047903;23;20053;-82
2023/10/04 09:48:13;;;;;;;61.15;35.70;;;;;;;24.31;54.09;101987.63;6030022;23;20315;-81
2023/10/04 09:50:47;;;;;;;52.25;36.20;;;;;;;24.29;54.15;101976.13;6027389;23;20309;-83
2023/10/04 09:53:22;;;;;;;59.33;36.40;;;;;;;24.12;54.36;101955.72;6003328;23;20218;-81
2023/10/04 09:55:59;;;;;;;55.60;34.97;;;;;;;24.21;55.08;101977.09;6025548;23;20065;-82
2023/10/04 09:58:33;;;;;;;46.97;32.60;;;;;;;24.01;55.35;101936.22;6041239;23;20456;-82
2023/10/04 10:01:12;;;;;;;57.58;35.80;;;;;;;23.91;54.92;101905.84;6064009;23;20029;-81
2023/10/04 10:04:07;;;;;;;54.85;38.22;;;;;;;24.21;54.59;101930.13;6048059;23;20149;-83
2023/10/04 10:07:09;;;;;;;54.78;38.95;;;;;;;24.47;54.30;101940.41;6043463;23;20023;-83
2023/10/04 10:09:48;;;;;;;60.95;37.50;;;;;;;24.87;53.72;101982.28;6029761;23;20629;-80
2023/10/04 10:12:32;;;;;;;55.13;38.50;;;;;;;25.05;53.78;101975.50;6054971;23;20529;-81
2023/10/04 10:15:04;;;;;;;62.45;42.22;;;;;;;25.12;53.43;101962.78;6041406;23;20018;-79
2023/10/04 10:17:33;;;;;;;62.20;41.63;;;;;;;25.09;53.46;101946.91;6083935;23;20026;-79
2023/10/04 10:20:16;;;;;;;65.32;42.50;;;;;;;25.29;52.94;101977.78;6008402;23;20031;-81
2023/10/04 10:23:01;;;;;;;64.82;40.97;;;;;;;25.25;53.26;101960.19;6023372;23;20029;-82
2023/10/04 10:25:33;;;;;;;64.10;42.78;;;;;;;25.25;53.19;101952.03;6038072;23;20022;-81
2023/10/04 10:28:03;;;;;;;62.10;42.35;;;;;;;25.11;53.41;101923.09;6033513;23;20030;-81
2023/10/04 10:30:34;;;;;;;61.50;42.53;;;;;;;25.25;53.31;101930.31;6040010;23;20029;-80
2023/10/04 10:33:04;;;;;;;;;;;;;;;25.45;53.82;101954.03;6045614;23;20029;-82
2023/10/04 10:35:57;;;;;;;60.47;42.65;;;;;;;25.68;52.69;101951.81;6041764;23;20120;-82
2023/10/04 10:38:49;;;;;;;63.60;46.03;;;;;;;25.68;52.72;101951.81;6019642;23;20486;-81
2023/10/04 10:41:31;;;;;;;61.90;44.22;;;;;;;25.57;54.18;101957.84;6043351;23;20015;-82
2023/10/04 10:44:33;;;;;;;66.80;44.88;;;;;;;25.54;53.81;101956.34;6043262;23;20637;-82
2023/10/04 10:47:27;;;;;;;71.35;46.45;;;;;;;25.43;54.21;101931.63;6019051;23;20026;-83
2023/10/04 10:50:01;;;;;;;74.78;49.83;;;;;;;25.52;53.64;101917.66;6014437;23;20026;-82
2023/10/04 10:52:39;;;;;;;80.63;50.13;;;;;;;25.65;53.81;101926.91;6058940;23;20026;-82
2023/10/04 10:55:14;;;;;;;88.55;49.97;;;;;;;25.90;53.99;101948.94;6046197;23;20578;-82
2023/10/04 10:57:47;;;;;;;77.82;49.92;;;;;;;26.04;53.87;101939.78;6034428;23;20308;-82
2023/10/04 11:02:54;;;;;;;76.68;50.47;;;;;;;26.20;53.17;101944.81;6064377;23;20081;-81
2023/10/04 11:05:31;;;;;;;80.20;53.72;;;;;;;26.36;53.20;101945.47;6033032;23;20618;-81
2023/10/04 11:07:58;;;;;;;62.05;46.60;;;;;;;25.82;52.86;101824.00;6034177;23;20026;-82
2023/10/04 11:10:26;;;;;;;75.47;47.78;;;;;;;26.64;52.50;101921.59;6027004;23;20026;-79
2023/10/04 11:13:03;;;;;;;75.70;48.70;;;;;;;26.86;52.00;101937.72;6047328;23;20387;-82
2023/10/04 11:15:46;;;;;;;70.47;50.28;;;;;;;26.36;51.79;101851.03;6038782;23;20169;-81
2023/10/04 11:18:14;;;;;;;75.30;49.85;;;;;;;26.92;51.72;101919.66;6044054;23;20185;-81
2023/10/04 11:20:42;;;;;;;65.97;47.15;;;;;;;26.76;51.17;101874.66;6046995;23;20023;-81
2023/10/04 11:23:13;;;;;;;70.43;49.63;;;;;;;26.82;50.61;101871.94;6036053;23;20075;-81
2023/10/04 11:25:40;;;;;;;74.82;49.15;;;;;;;27.25;50.12;101925.88;6048251;23;20048;-81
2023/10/04 11:28:12;;;;;;;75.88;51.95;;;;;;;27.17;50.15;101941.63;6020747;23;20026;-81
2023/10/04 11:30:46;;;;;;;65.95;46.90;;;;;;;26.79;50.97;101906.91;6023434;23;20086;-82
2023/10/04 11:33:17;;;;;;;72.70;46.78;;;;;;;26.67;51.49;101895.00;6045822;23;20454;-81
2023/10/04 11:35:47;;;;;;;69.07;44.45;;;;;;;26.78;51.64;101933.34;6052494;23;20156;-81